Time;durP1;ratioP1;P1;durP2;ratioP2;P2;SDS_P1;SDS_P2;PMS_P1;PMS_P2;Temp;Humidity;BMP_temperature;BMP_pressure;BME280_temperature;BME280_humidity;BME280_pressure;Samples;Min_cycle;Max_cycle;Signal;HPM_P1;HPM_P2
2022/10/18 00:01:06;;;;;;;19.52;12.40;;;14.80;99.90;;;;;;4985505;28;20053;-79
2022/10/18 00:03:33;;;;;;;18.88;11.50;;;14.80;99.90;;;;;;4970463;28;20014;-79
2022/10/18 00:05:59;;;;;;;21.98;12.10;;;14.80;99.90;;;;;;4970483;28;20279;-79
2022/10/18 00:08:25;;;;;;;21.70;12.48;;;14.70;99.90;;;;;;4988132;28;20061;-80
2022/10/18 00:10:51;;;;;;;18.77;12.73;;;14.70;99.90;;;;;;4986433;28;20061;-77
2022/10/18 00:13:18;;;;;;;18.13;12.50;;;14.70;99.90;;;;;;4984697;28;20164;-77
2022/10/18 00:15:55;;;;;;;21.80;13.23;;;14.70;99.90;;;;;;4985569;28;20032;-79
2022/10/18 00:18:22;;;;;;;17.17;12.38;;;14.70;99.90;;;;;;4975419;28;20031;-79
2022/10/18 00:21:19;;;;;;;19.02;12.35;;;14.70;99.90;;;;;;4988952;28;20553;-76
2022/10/18 00:23:46;;;;;;;17.52;11.82;;;14.70;99.90;;;;;;4957795;28;20072;-77
2022/10/18 00:26:17;;;;;;;21.23;12.82;;;14.70;99.90;;;;;;4986509;28;20023;-78
2022/10/18 00:28:44;;;;;;;21.25;12.68;;;14.70;99.90;;;;;;4952860;28;20078;-79
2022/10/18 00:31:14;;;;;;;19.33;12.80;;;14.70;99.90;;;;;;4975491;28;20037;-80
2022/10/18 00:33:41;;;;;;;25.50;12.93;;;14.70;99.90;;;;;;4982947;28;21192;-79
2022/10/18 00:36:07;;;;;;;18.88;13.10;;;14.60;99.90;;;;;;4995084;28;20037;-79
2022/10/18 00:38:34;;;;;;;17.60;12.50;;;14.60;99.90;;;;;;4982070;28;20030;-78
2022/10/18 00:41:00;;;;;;;20.65;11.80;;;14.60;99.90;;;;;;4993783;28;20033;-78
2022/10/18 00:43:26;;;;;;;19.35;12.98;;;14.60;99.90;;;;;;4982491;28;20044;-79
2022/10/18 00:45:52;;;;;;;19.85;12.70;;;14.60;99.90;;;;;;4994189;28;20358;-78
2022/10/18 00:48:19;;;;;;;19.70;12.30;;;14.60;99.90;;;;;;4979913;28;20029;-79
2022/10/18 00:50:47;;;;;;;21.10;12.68;;;14.60;99.90;;;;;;4994764;28;20077;-78
2022/10/18 00:53:16;;;;;;;23.65;14.20;;;14.60;99.90;;;;;;4992093;28;20576;-79
2022/10/18 00:55:42;;;;;;;21.05;13.45;;;14.60;99.90;;;;;;4972963;28;20113;-79
2022/10/18 00:58:10;;;;;;;19.73;13.48;;;14.60;99.90;;;;;;4991673;28;20037;-79
2022/10/18 01:00:39;;;;;;;18.67;12.77;;;14.60;99.90;;;;;;4969982;28;20046;-79
2022/10/18 01:03:06;;;;;;;24.02;14.77;;;14.60;99.90;;;;;;4989662;28;20057;-79
2022/10/18 01:05:34;;;;;;;19.67;13.23;;;14.60;99.90;;;;;;4996168;28;20911;-78
2022/10/18 01:08:00;;;;;;;24.77;14.40;;;14.50;99.90;;;;;;4977422;28;20034;-79
2022/10/18 01:10:38;;;;;;;21.92;14.00;;;14.50;99.90;;;;;;4962086;28;20094;-78
2022/10/18 01:13:30;;;;;;;22.33;14.15;;;14.50;99.90;;;;;;4973936;28;20036;-78
2022/10/18 01:16:13;;;;;;;22.92;15.10;;;14.50;99.90;;;;;;4988651;28;20036;-79
2022/10/18 01:19:05;;;;;;;20.35;13.35;;;14.50;99.90;;;;;;4991709;28;20026;-79
2022/10/18 01:21:54;;;;;;;23.55;14.05;;;14.50;99.90;;;;;;4961214;28;20026;-78
2022/10/18 01:24:37;;;;;;;21.40;14.35;;;14.40;99.90;;;;;;4994012;28;20409;-78
2022/10/18 01:27:30;;;;;;;25.38;13.82;;;14.40;99.90;;;;;;4987550;28;20073;-79
2022/10/18 01:30:20;;;;;;;22.42;15.25;;;14.40;99.90;;;;;;4990709;28;20030;-79
2022/10/18 01:32:51;;;;;;;22.58;13.73;;;14.40;99.90;;;;;;4992844;28;20045;-79
2022/10/18 01:35:21;;;;;;;23.20;14.63;;;14.40;99.90;;;;;;5001521;28;20030;-79
2022/10/18 01:37:49;;;;;;;24.02;15.00;;;14.50;99.90;;;;;;4995139;28;20035;-79
2022/10/18 01:40:19;;;;;;;24.55;14.65;;;14.40;99.90;;;;;;4997119;28;20034;-79
2022/10/18 01:42:47;;;;;;;23.88;14.38;;;14.40;99.90;;;;;;4993766;28;20514;-78
2022/10/18 01:45:15;;;;;;;24.60;15.20;;;14.40;99.90;;;;;;4989778;28;20030;-78
2022/10/18 01:47:44;;;;;;;27.42;15.57;;;14.40;99.90;;;;;;4977892;28;20054;-79
2022/10/18 01:50:10;;;;;;;25.13;14.82;;;14.40;99.90;;;;;;4993218;28;20030;-79
2022/10/18 01:52:50;;;;;;;23.35;15.00;;;14.40;99.90;;;;;;4992375;28;20034;-78
2022/10/18 01:55:19;;;;;;;28.00;16.17;;;14.40;99.90;;;;;;4972919;28;20089;-79
2022/10/18 01:58:10;;;;;;;21.35;14.77;;;14.50;99.90;;;;;;4991023;28;20022;-78
2022/10/18 02:00:43;;;;;;;29.35;15.93;;;14.50;99.90;;;;;;4966816;28;20022;-79
2022/10/18 02:03:25;;;;;;;25.23;15.23;;;14.50;99.90;;;;;;4985449;28;20065;-81
2022/10/18 02:05:57;;;;;;;28.70;15.98;;;14.50;99.90;;;;;;4953529;28;20054;-79
2022/10/18 02:08:44;;;;;;;27.10;16.23;;;14.50;99.90;;;;;;4975252;28;20033;-78
2022/10/18 02:11:13;;;;;;;34.15;18.05;;;14.50;99.90;;;;;;4984787;28;20077;-78
2022/10/18 02:13:55;;;;;;;29.75;17.30;;;14.50;99.90;;;;;;4970473;28;20065;-79
2022/10/18 02:16:26;;;;;;;30.10;18.45;;;14.50;99.90;;;;;;4988062;28;20027;-79
2022/10/18 02:19:06;;;;;;;;;;;14.50;99.90;;;;;;4990201;28;20446;-78
2022/10/18 02:21:33;;;;;;;34.17;18.23;;;14.50;99.90;;;;;;4991143;28;19941;-80
2022/10/18 02:24:00;;;;;;;29.23;18.08;;;14.50;99.90;;;;;;4990603;28;20502;-78
2022/10/18 02:26:26;;;;;;;32.30;18.88;;;14.50;99.90;;;;;;4986922;28;20552;-78
2022/10/18 02:28:52;;;;;;;32.03;18.02;;;14.40;99.90;;;;;;4985780;28;20064;-78
2022/10/18 02:31:27;;;;;;;29.65;17.73;;;14.40;99.90;;;;;;4990567;28;20030;-78
2022/10/18 02:34:03;;;;;;;28.50;17.85;;;14.50;99.90;;;;;;4978043;28;20022;-78
2022/10/18 02:36:51;;;;;;;28.88;19.50;;;14.50;99.90;;;;;;4976230;28;20060;-79
2022/10/18 02:39:31;;;;;;;32.20;18.35;;;14.50;99.90;;;;;;4974779;28;20721;-78
2022/10/18 02:41:57;;;;;;;29.48;19.27;;;14.50;99.90;;;;;;4973647;28;20034;-78
2022/10/18 02:44:23;;;;;;;31.45;19.25;;;14.50;99.90;;;;;;4976200;28;20477;-77
2022/10/18 02:46:49;;;;;;;34.80;19.73;;;14.50;99.90;;;;;;4991867;28;20032;-78
2022/10/18 02:49:14;;;;;;;31.00;18.50;;;14.50;99.90;;;;;;4975887;28;20018;-79
2022/10/18 02:51:40;;;;;;;30.48;18.83;;;14.50;99.90;;;;;;4976229;28;20026;-78
2022/10/18 02:54:07;;;;;;;30.00;17.98;;;14.60;99.90;;;;;;4959541;28;20046;-80
2022/10/18 02:56:33;;;;;;;33.45;19.55;;;14.60;99.90;;;;;;4994560;28;20054;-77
2022/10/18 02:58:59;;;;;;;35.13;18.33;;;14.60;99.90;;;;;;4992440;28;20500;-79
2022/10/18 03:01:24;;;;;;;36.38;19.38;;;14.60;99.90;;;;;;4977794;28;20034;-77
2022/10/18 03:03:50;;;;;;;33.47;19.38;;;14.60;99.90;;;;;;4974990;28;20026;-79
2022/10/18 03:06:16;;;;;;;29.95;18.17;;;14.60;99.90;;;;;;4990397;28;20030;-79
2022/10/18 03:08:42;;;;;;;32.03;19.15;;;14.60;99.90;;;;;;4986379;28;20030;-77
2022/10/18 03:11:07;;;;;;;33.88;18.77;;;14.50;99.90;;;;;;4992014;28;20072;-76
2022/10/18 03:13:33;;;;;;;30.55;17.50;;;14.50;99.90;;;;;;4987386;28;20474;-77
2022/10/18 03:15:59;;;;;;;39.15;20.00;;;14.50;99.90;;;;;;4992240;28;20117;-77
2022/10/18 03:18:25;;;;;;;35.30;19.48;;;14.50;99.90;;;;;;4987267;28;20041;-77
2022/10/18 03:20:51;;;;;;;36.40;19.35;;;14.50;99.90;;;;;;4975688;28;20372;-77
2022/10/18 03:23:17;;;;;;;33.78;20.23;;;14.50;99.90;;;;;;4958629;28;20041;-77
2022/10/18 03:25:44;;;;;;;33.10;20.27;;;14.40;99.90;;;;;;4956676;28;20053;-77
2022/10/18 03:28:10;;;;;;;32.83;20.00;;;14.40;99.90;;;;;;4952681;28;20046;-77
2022/10/18 03:30:37;;;;;;;34.58;20.42;;;14.40;99.90;;;;;;4978397;28;20026;-77
2022/10/18 03:33:06;;;;;;;29.13;18.73;;;14.40;99.90;;;;;;4989222;28;20073;-77
2022/10/18 03:35:33;;;;;;;35.75;19.92;;;14.40;99.90;;;;;;4992556;28;20061;-77
2022/10/18 03:38:01;;;;;;;36.65;19.88;;;14.40;99.90;;;;;;4969413;28;20042;-78
2022/10/18 03:40:26;;;;;;;32.97;20.02;;;14.40;99.90;;;;;;4997051;28;20038;-77
2022/10/18 03:42:52;;;;;;;30.83;19.35;;;14.40;99.90;;;;;;4990634;28;20140;-77
2022/10/18 03:45:18;;;;;;;33.65;20.05;;;14.30;99.90;;;;;;4996590;28;20034;-79
2022/10/18 03:47:43;;;;;;;33.17;18.98;;;14.30;99.90;;;;;;4972878;28;20027;-79
2022/10/18 03:50:11;;;;;;;35.38;19.60;;;14.30;99.90;;;;;;4990830;28;20114;-79
2022/10/18 03:52:37;;;;;;;34.00;20.42;;;14.30;99.90;;;;;;4986055;28;20529;-80
2022/10/18 03:55:03;;;;;;;33.70;19.67;;;14.30;99.90;;;;;;4972557;28;20094;-76
2022/10/18 03:57:28;;;;;;;34.30;19.02;;;14.30;99.90;;;;;;4992344;28;20034;-77
2022/10/18 03:59:54;;;;;;;37.10;19.90;;;14.30;99.90;;;;;;4991523;28;20517;-76
2022/10/18 04:02:20;;;;;;;34.50;19.15;;;14.30;99.90;;;;;;4993396;28;20435;-78
2022/10/18 04:04:45;;;;;;;32.38;18.65;;;14.20;99.90;;;;;;5001342;28;20011;-77
2022/10/18 04:07:11;;;;;;;29.70;18.83;;;14.20;99.90;;;;;;4979313;28;20220;-77
2022/10/18 04:09:37;;;;;;;30.98;20.02;;;14.20;99.90;;;;;;4972595;28;20069;-82
2022/10/18 04:12:03;;;;;;;29.88;18.30;;;14.20;99.90;;;;;;4991840;28;20050;-76
2022/10/18 04:14:28;;;;;;;32.55;19.88;;;14.20;99.90;;;;;;4997912;28;20744;-76
2022/10/18 04:16:54;;;;;;;30.50;19.38;;;14.30;99.90;;;;;;4996294;28;20471;-77
2022/10/18 04:19:20;;;;;;;32.28;19.45;;;14.30;99.90;;;;;;4974799;28;20542;-79
2022/10/18 04:21:45;;;;;;;32.58;18.83;;;14.30;99.90;;;;;;4996359;28;20109;-77
2022/10/18 04:24:11;;;;;;;31.15;18.35;;;14.30;99.90;;;;;;4976024;28;20022;-77
2022/10/18 04:26:37;;;;;;;32.10;19.20;;;14.30;99.90;;;;;;4990527;28;20045;-77
2022/10/18 04:29:03;;;;;;;35.15;17.92;;;14.30;99.90;;;;;;5000399;28;20033;-77
2022/10/18 04:31:30;;;;;;;30.15;18.65;;;14.30;99.90;;;;;;4992134;28;20034;-76
2022/10/18 04:33:55;;;;;;;34.05;19.30;;;14.30;99.90;;;;;;4988615;28;20557;-77
2022/10/18 04:36:22;;;;;;;31.70;19.33;;;14.30;99.90;;;;;;4988936;28;20030;-77
2022/10/18 04:38:51;;;;;;;36.15;20.52;;;14.30;99.90;;;;;;4989058;28;20146;-77
2022/10/18 04:41:17;;;;;;;39.17;20.40;;;14.30;99.90;;;;;;4989294;28;20045;-76
2022/10/18 04:43:43;;;;;;;36.00;19.55;;;14.30;99.90;;;;;;4990063;28;20113;-77
2022/10/18 04:46:09;;;;;;;34.72;20.77;;;14.30;99.90;;;;;;4995710;28;20121;-77
2022/10/18 04:48:35;;;;;;;34.63;18.70;;;14.30;99.90;;;;;;4993304;28;20040;-77
2022/10/18 04:51:00;;;;;;;32.08;19.42;;;14.30;99.90;;;;;;4989634;28;20735;-77
2022/10/18 04:53:26;;;;;;;31.90;19.75;;;14.30;99.90;;;;;;4999075;28;20049;-77
2022/10/18 04:55:52;;;;;;;31.65;19.83;;;14.20;99.90;;;;;;4977696;28;20519;-76
2022/10/18 04:58:18;;;;;;;40.38;20.98;;;14.20;99.90;;;;;;4976153;28;20023;-77
2022/10/18 05:00:44;;;;;;;33.53;19.50;;;14.20;99.90;;;;;;4990078;28;20023;-78
2022/10/18 05:03:12;;;;;;;35.60;20.77;;;14.20;99.90;;;;;;4994719;28;20070;-79
2022/10/18 05:05:38;;;;;;;39.92;21.40;;;14.30;99.90;;;;;;4977789;28;20018;-78
2022/10/18 05:08:06;;;;;;;36.47;21.98;;;14.30;99.90;;;;;;4990254;28;20045;-76
2022/10/18 05:10:31;;;;;;;36.22;20.92;;;14.30;99.90;;;;;;4992060;28;20105;-79
2022/10/18 05:12:57;;;;;;;37.55;21.90;;;14.30;99.90;;;;;;4995163;28;20154;-77
2022/10/18 05:15:23;;;;;;;41.03;23.05;;;14.30;99.90;;;;;;4993933;28;20022;-78
2022/10/18 05:17:49;;;;;;;36.65;21.20;;;14.30;99.90;;;;;;4978217;28;20030;-77
2022/10/18 05:20:15;;;;;;;34.40;21.10;;;14.20;99.90;;;;;;4992305;28;20018;-79
2022/10/18 05:23:01;;;;;;;36.45;20.83;;;14.30;99.90;;;;;;4991493;28;20033;-78
2022/10/18 05:25:27;;;;;;;35.20;22.23;;;14.20;99.90;;;;;;4949359;28;20150;-78
2022/10/18 05:27:53;;;;;;;37.55;22.08;;;14.20;99.90;;;;;;4948547;28;20130;-76
2022/10/18 05:30:20;;;;;;;38.13;22.13;;;14.20;99.90;;;;;;4939575;28;20039;-78
2022/10/18 05:32:47;;;;;;;41.08;21.63;;;14.20;99.90;;;;;;4933034;28;20035;-81
2022/10/18 05:35:12;;;;;;;38.20;20.83;;;14.30;99.90;;;;;;4949810;28;20027;-77
2022/10/18 05:37:38;;;;;;;35.78;20.88;;;14.20;99.90;;;;;;4951170;28;20035;-77
2022/10/18 05:40:04;;;;;;;35.63;20.40;;;14.20;99.90;;;;;;4938458;28;20130;-77
2022/10/18 05:42:30;;;;;;;38.90;20.25;;;14.20;99.90;;;;;;4952889;28;20074;-76
2022/10/18 05:44:56;;;;;;;38.47;20.00;;;14.20;99.90;;;;;;4936009;28;20063;-77
2022/10/18 05:47:22;;;;;;;35.67;20.45;;;14.20;99.90;;;;;;4932808;28;20038;-77
2022/10/18 05:49:48;;;;;;;33.38;18.85;;;14.20;99.90;;;;;;4949399;28;20074;-77
2022/10/18 05:52:15;;;;;;;38.30;20.13;;;14.20;99.90;;;;;;4934701;28;20039;-77
2022/10/18 05:54:41;;;;;;;33.28;18.98;;;14.20;99.90;;;;;;4951193;28;20498;-77
2022/10/18 05:57:08;;;;;;;33.80;19.13;;;14.20;99.90;;;;;;4927667;29;20126;-79
2022/10/18 05:59:35;;;;;;;33.58;18.05;;;14.20;99.90;;;;;;4944078;28;20031;-79
2022/10/18 06:02:01;;;;;;;34.30;18.60;;;14.20;99.90;;;;;;4967019;28;20038;-78
2022/10/18 06:04:27;;;;;;;32.92;18.23;;;14.20;99.90;;;;;;5000428;28;20041;-78
2022/10/18 06:06:54;;;;;;;37.45;19.58;;;14.20;99.90;;;;;;4989868;28;20022;-79
2022/10/18 06:09:20;;;;;;;35.47;19.73;;;14.20;99.90;;;;;;4991104;28;20517;-77
2022/10/18 06:11:46;;;;;;;35.67;19.73;;;14.20;99.90;;;;;;4992919;28;20033;-76
2022/10/18 06:14:12;;;;;;;38.15;19.88;;;14.20;99.90;;;;;;4974700;28;20041;-79
2022/10/18 06:16:37;;;;;;;22.98;13.25;;;14.20;99.90;;;;;;4978830;28;20103;-79
2022/10/18 06:19:03;;;;;;;36.45;19.23;;;14.90;99.90;;;;;;4984468;28;20062;-78
2022/10/18 06:21:49;;;;;;;34.60;19.17;;;14.60;99.90;;;;;;4968325;28;20061;-77
2022/10/18 06:24:15;;;;;;;42.88;19.33;;;14.50;99.90;;;;;;4908299;29;20043;-78
2022/10/18 06:26:41;;;;;;;34.15;18.23;;;14.30;99.90;;;;;;4912200;29;20551;-78
2022/10/18 06:29:07;;;;;;;35.25;18.42;;;14.30;99.90;;;;;;4924748;29;20051;-80
2022/10/18 06:31:33;;;;;;;35.42;18.63;;;14.20;99.90;;;;;;4913823;29;20055;-77
2022/10/18 06:34:01;;;;;;;41.67;17.58;;;14.20;99.90;;;;;;4913229;29;20028;-79
2022/10/18 06:36:27;;;;;;;33.75;17.77;;;14.20;99.90;;;;;;4912086;29;20043;-80
2022/10/18 06:38:54;;;;;;;37.10;17.38;;;14.20;99.90;;;;;;4917255;29;20039;-79
2022/10/18 06:41:20;;;;;;;33.72;16.55;;;14.10;99.90;;;;;;4926094;29;21586;-77
2022/10/18 06:43:50;;;;;;;30.88;16.70;;;14.10;99.90;;;;;;4906246;29;20416;-77
2022/10/18 06:46:16;;;;;;;38.92;18.10;;;14.20;99.90;;;;;;4926318;29;20127;-75
2022/10/18 06:48:42;;;;;;;30.27;16.30;;;14.20;99.90;;;;;;4917439;29;20100;-77
2022/10/18 06:51:08;;;;;;;32.70;15.63;;;14.10;99.90;;;;;;4928776;29;20074;-77
2022/10/18 06:53:38;;;;;;;35.03;15.88;;;14.10;99.90;;;;;;4939501;29;20032;-78
2022/10/18 06:56:06;;;;;;;30.75;16.58;;;14.20;99.90;;;;;;4930780;29;20046;-77
2022/10/18 06:58:34;;;;;;;31.13;15.68;;;14.10;99.90;;;;;;4913653;29;20090;-78
2022/10/18 07:01:08;;;;;;;30.65;15.25;;;14.20;99.90;;;;;;4937342;28;20041;-77
2022/10/18 07:03:35;;;;;;;30.30;16.25;;;14.20;99.90;;;;;;4993940;28;20362;-79
2022/10/18 07:06:07;;;;;;;29.10;16.02;;;14.20;99.90;;;;;;4994103;28;20034;-77
2022/10/18 07:08:33;;;;;;;;;;;14.20;99.90;;;;;;4992071;28;20062;-77
2022/10/18 07:10:59;;;;;;;32.85;16.58;;;14.20;99.90;;;;;;4989710;28;21034;-79
2022/10/18 07:13:29;;;;;;;29.52;15.95;;;14.20;99.90;;;;;;4993883;28;20033;-77
2022/10/18 07:16:10;;;;;;;32.37;15.80;;;14.20;99.90;;;;;;4973377;28;20110;-78
2022/10/18 07:18:37;;;;;;;;;;;14.20;99.90;;;;;;4972838;28;20285;-76
2022/10/18 07:21:06;;;;;;;33.55;16.88;;;14.20;99.90;;;;;;4978999;28;19976;-76
2022/10/18 07:23:33;;;;;;;32.00;17.48;;;14.20;99.90;;;;;;4970064;28;20068;-77
2022/10/18 07:26:00;;;;;;;35.00;17.55;;;14.20;99.90;;;;;;4984663;28;20509;-77
2022/10/18 07:28:27;;;;;;;34.35;17.10;;;14.20;99.90;;;;;;4966753;28;20058;-77
2022/10/18 07:30:53;;;;;;;30.42;17.33;;;14.20;99.90;;;;;;4996147;28;20208;-78
2022/10/18 07:33:23;;;;;;;27.60;16.08;;;14.20;99.90;;;;;;4991509;28;20179;-77
2022/10/18 07:35:49;;;;;;;28.48;15.60;;;14.20;99.90;;;;;;4988834;28;20141;-77
2022/10/18 07:38:14;;;;;;;29.38;15.45;;;14.30;99.90;;;;;;4994508;28;20534;-77
2022/10/18 07:40:40;;;;;;;28.63;15.90;;;14.30;99.90;;;;;;4995008;28;20022;-77
2022/10/18 07:43:06;;;;;;;26.55;16.02;;;14.30;99.90;;;;;;4970457;28;20630;-77
2022/10/18 07:45:32;;;;;;;27.95;15.63;;;14.30;99.90;;;;;;4987691;28;20029;-77
2022/10/18 07:47:58;;;;;;;24.00;15.10;;;14.30;99.90;;;;;;5001598;28;20521;-77
2022/10/18 07:50:23;;;;;;;27.13;15.52;;;14.30;99.90;;;;;;4996949;28;20041;-78
2022/10/18 07:52:49;;;;;;;30.13;14.82;;;14.30;99.90;;;;;;4995864;28;20029;-77
2022/10/18 07:55:15;;;;;;;23.77;14.00;;;14.30;99.90;;;;;;4979704;28;20027;-77
2022/10/18 07:57:41;;;;;;;22.65;13.57;;;14.30;99.90;;;;;;5006824;28;20101;-77
2022/10/18 08:00:07;;;;;;;24.75;12.88;;;14.40;99.90;;;;;;4985089;28;20157;-77
2022/10/18 08:02:34;;;;;;;33.53;14.30;;;14.40;99.90;;;;;;5001143;28;20030;-77
2022/10/18 08:04:59;;;;;;;26.48;13.98;;;14.30;99.90;;;;;;4983028;28;20111;-77
2022/10/18 08:07:25;;;;;;;27.02;13.50;;;14.30;99.90;;;;;;4984914;28;20061;-78
2022/10/18 08:09:51;;;;;;;31.38;14.55;;;14.40;99.90;;;;;;4987051;28;20030;-79
2022/10/18 08:12:17;;;;;;;27.52;14.82;;;14.40;99.90;;;;;;4997190;28;20655;-78
2022/10/18 08:14:42;;;;;;;25.73;13.38;;;14.40;99.90;;;;;;4979149;28;20038;-77
2022/10/18 08:17:08;;;;;;;32.83;15.30;;;14.40;99.90;;;;;;5000358;28;20270;-77
2022/10/18 08:19:34;;;;;;;26.63;13.85;;;14.40;99.90;;;;;;5001281;28;20030;-79
2022/10/18 08:22:00;;;;;;;26.17;14.00;;;14.40;99.90;;;;;;5010354;28;20026;-75
2022/10/18 08:24:25;;;;;;;28.55;14.10;;;14.40;99.90;;;;;;4996813;28;20190;-77
2022/10/18 08:26:51;;;;;;;24.10;13.57;;;14.40;99.90;;;;;;4982140;28;20037;-77
2022/10/18 08:29:17;;;;;;;28.05;13.75;;;14.50;99.90;;;;;;4965426;28;20038;-77
2022/10/18 08:31:42;;;;;;;27.17;14.02;;;14.50;99.90;;;;;;4978183;28;20032;-75
2022/10/18 08:34:08;;;;;;;26.38;13.43;;;14.50;99.90;;;;;;4969844;28;20030;-77
2022/10/18 08:36:34;;;;;;;28.17;14.20;;;14.50;99.90;;;;;;4970162;28;20460;-76
2022/10/18 08:39:01;;;;;;;28.23;13.98;;;14.50;99.90;;;;;;4999915;28;20029;-78
2022/10/18 08:41:36;;;;;;;30.30;14.63;;;14.50;99.90;;;;;;4956253;28;20022;-77
2022/10/18 08:44:14;;;;;;;26.48;13.73;;;14.60;99.90;;;;;;5000599;28;20038;-77
2022/10/18 08:46:45;;;;;;;29.75;14.50;;;14.50;99.90;;;;;;4991642;28;20030;-76
2022/10/18 08:49:21;;;;;;;23.83;13.02;;;14.60;99.90;;;;;;4979673;28;20109;-76
2022/10/18 08:51:50;;;;;;;26.38;13.63;;;14.60;99.90;;;;;;4993124;28;20830;-77
2022/10/18 08:54:25;;;;;;;26.58;13.20;;;14.50;99.90;;;;;;4996146;28;20062;-76
2022/10/18 08:57:00;;;;;;;24.63;12.88;;;14.50;99.90;;;;;;4985946;28;20023;-76
2022/10/18 08:59:31;;;;;;;22.10;12.30;;;14.50;99.90;;;;;;4993864;28;20565;-76
2022/10/18 09:02:16;;;;;;;22.52;11.70;;;14.50;99.90;;;;;;4969004;28;20038;-76
2022/10/18 09:04:45;;;;;;;22.85;12.27;;;14.50;99.90;;;;;;4972267;28;20127;-75
2022/10/18 09:07:33;;;;;;;26.40;12.45;;;14.50;99.90;;;;;;4995314;28;20533;-77
2022/10/18 09:10:14;;;;;;;25.95;11.50;;;14.50;99.90;;;;;;4974246;28;20258;-76
2022/10/18 09:12:58;;;;;;;23.10;12.77;;;14.40;99.90;;;;;;4980533;28;20034;-76
2022/10/18 09:15:44;;;;;;;24.35;12.70;;;14.40;99.90;;;;;;4991738;28;20026;-77
2022/10/18 09:18:25;;;;;;;20.50;12.52;;;14.40;99.90;;;;;;4977880;28;20026;-77
2022/10/18 09:21:04;;;;;;;25.50;12.85;;;14.40;99.90;;;;;;4992185;28;20028;-75
2022/10/18 09:23:53;;;;;;;24.65;12.90;;;14.40;99.90;;;;;;4985180;28;20045;-76
2022/10/18 09:26:21;;;;;;;21.70;12.52;;;14.40;99.90;;;;;;4985672;28;20065;-76
2022/10/18 09:29:34;;;;;;;24.52;13.02;;;14.40;99.90;;;;;;4978548;28;20082;-75
2022/10/18 09:32:13;;;;;;;19.88;11.93;;;14.40;99.90;;;;;;4982898;28;20141;-77
2022/10/18 09:34:49;;;;;;;21.23;11.85;;;14.40;99.90;;;;;;4974746;28;20096;-76
2022/10/18 09:37:18;;;;;;;21.02;11.82;;;14.40;99.90;;;;;;4978555;28;20085;-76
2022/10/18 09:39:47;;;;;;;23.40;11.20;;;14.40;99.90;;;;;;4992731;28;20043;-76
2022/10/18 09:42:27;;;;;;;22.80;11.07;;;14.40;99.90;;;;;;4991370;28;20037;-76
2022/10/18 09:45:33;;;;;;;22.65;11.35;;;14.40;99.90;;;;;;4990469;28;20081;-76
2022/10/18 09:48:02;;;;;;;26.50;11.07;;;14.50;99.90;;;;;;4989261;28;20058;-77
2022/10/18 09:50:54;;;;;;;14.98;10.00;;;14.90;99.90;;;;;;4975786;28;20062;-76
2022/10/18 09:53:58;;;;;;;22.55;10.75;;;15.60;99.90;;;;;;4992421;28;20041;-77
2022/10/18 09:56:49;;;;;;;21.58;9.77;;;16.30;99.90;;;;;;4988700;28;20471;-77
2022/10/18 10:00:02;;;;;;;16.38;8.23;;;16.90;99.90;;;;;;4965885;28;20118;-77
2022/10/18 10:02:28;;;;;;;20.88;9.55;;;17.50;99.90;;;;;;4918342;28;20069;-76
2022/10/18 10:04:54;;;;;;;20.05;8.90;;;18.10;99.90;;;;;;4976485;28;20118;-78
2022/10/18 10:07:32;;;;;;;13.63;7.55;;;18.80;99.90;;;;;;4976209;28;20034;-76
2022/10/18 10:10:22;;;;;;;14.48;7.40;;;19.10;99.90;;;;;;4998087;28;20031;-76
2022/10/18 10:13:13;;;;;;;18.05;8.68;;;19.40;99.90;;;;;;4995126;28;20142;-78
2022/10/18 10:15:40;;;;;;;16.70;7.75;;;18.70;99.90;;;;;;4977481;28;20022;-76
2022/10/18 10:18:19;;;;;;;17.02;9.05;;;18.70;99.90;;;;;;4970504;28;20517;-77
2022/10/18 10:20:49;;;;;;;17.58;9.20;;;19.10;99.90;;;;;;4997336;28;20050;-77
2022/10/18 10:23:23;;;;;;;21.30;10.77;;;19.00;99.90;;;;;;4954917;28;20060;-77
2022/10/18 10:25:58;;;;;;;16.98;9.38;;;18.70;99.90;;;;;;4986023;28;20033;-76
2022/10/18 10:28:31;;;;;;;19.90;9.77;;;18.20;99.90;;;;;;4970601;28;20062;-75
2022/10/18 10:31:15;;;;;;;19.85;10.05;;;17.50;99.90;;;;;;4980461;28;20037;-79
2022/10/18 10:33:48;;;;;;;15.65;9.35;;;17.00;99.90;;;;;;4982670;28;20030;-79
2022/10/18 10:36:19;;;;;;;17.25;10.05;;;16.80;99.90;;;;;;4979657;28;20066;-78
2022/10/18 10:38:44;;;;;;;19.48;10.32;;;16.90;99.90;;;;;;4969245;28;20037;-77
2022/10/18 10:41:19;;;;;;;18.55;9.63;;;16.80;99.90;;;;;;4966902;28;20030;-77
2022/10/18 10:43:46;;;;;;;15.38;8.27;;;17.20;99.90;;;;;;4969882;28;20030;-76
2022/10/18 10:46:14;;;;;;;20.40;7.53;;;17.30;99.90;;;;;;4987405;28;20034;-77
2022/10/18 10:48:58;;;;;;;15.00;7.78;;;17.90;99.90;;;;;;4990911;28;20364;-76
2022/10/18 10:51:28;;;;;;;16.27;7.20;;;19.00;99.90;;;;;;4980308;28;20034;-76
2022/10/18 10:54:02;;;;;;;13.27;6.82;;;19.70;99.90;;;;;;4994822;28;20380;-76
2022/10/18 10:56:34;;;;;;;13.88;6.53;;;19.90;99.90;;;;;;4986826;28;20057;-76
2022/10/18 10:59:14;;;;;;;13.70;7.07;;;19.90;99.90;;;;;;4977091;28;20022;-75
2022/10/18 11:01:40;;;;;;;13.40;6.25;;;18.90;99.90;;;;;;4978706;28;20025;-74
2022/10/18 11:04:27;;;;;;;12.45;6.38;;;17.90;99.90;;;;;;4995760;28;20305;-75
2022/10/18 11:07:03;;;;;;;22.85;12.82;;;17.30;99.90;;;;;;4988902;28;20037;-76
2022/10/18 11:09:53;;;;;;;17.10;7.25;;;17.00;99.90;;;;;;4976366;28;20037;-76
2022/10/18 11:12:32;;;;;;;13.95;6.30;;;16.60;99.90;;;;;;4991255;28;20050;-76
2022/10/18 11:15:31;;;;;;;18.17;7.10;;;16.40;99.90;;;;;;4988900;28;20022;-77
2022/10/18 11:18:18;;;;;;;16.25;7.22;;;16.10;99.90;;;;;;4989945;28;20022;-76
2022/10/18 11:20:57;;;;;;;15.27;6.55;;;15.90;99.90;;;;;;4985224;28;20023;-75
2022/10/18 11:23:30;;;;;;;16.13;6.55;;;15.60;99.90;;;;;;4979180;28;20188;-76
2022/10/18 11:26:11;;;;;;;14.10;5.45;;;15.50;99.90;;;;;;4954518;28;20039;-75
2022/10/18 11:28:49;;;;;;;14.07;5.18;;;15.50;99.90;;;;;;4966093;28;20064;-77
2022/10/18 11:31:45;;;;;;;18.85;5.75;;;15.50;99.90;;;;;;4977038;28;20070;-76
2022/10/18 11:34:38;;;;;;;15.88;5.70;;;15.50;99.90;;;;;;4991927;28;20022;-76
2022/10/18 11:37:10;;;;;;;17.67;6.50;;;15.50;99.90;;;;;;4968518;28;20030;-76
2022/10/18 11:39:42;;;;;;;14.02;5.55;;;15.50;99.90;;;;;;4996895;28;20525;-77
2022/10/18 11:42:28;;;;;;;17.38;6.18;;;15.40;99.90;;;;;;4974969;28;20120;-78
2022/10/18 11:45:23;;;;;;;20.20;5.75;;;15.30;99.90;;;;;;4989047;28;20170;-76
2022/10/18 11:48:20;;;;;;;15.38;5.93;;;15.30;99.90;;;;;;4971368;28;20038;-78
2022/10/18 11:51:18;;;;;;;17.27;6.07;;;15.20;99.90;;;;;;4979208;28;20042;-75
2022/10/18 11:54:06;;;;;;;17.55;6.18;;;15.20;99.90;;;;;;4959902;28;20046;-78
2022/10/18 11:56:58;;;;;;;17.55;6.68;;;15.30;99.90;;;;;;4988796;28;20029;-77
2022/10/18 11:59:49;;;;;;;12.38;5.43;;;15.30;99.90;;;;;;4996613;28;20026;-76
2022/10/18 12:02:32;;;;;;;15.20;5.80;;;15.30;99.90;;;;;;4972260;28;20040;-75
2022/10/18 12:05:01;;;;;;;13.70;6.00;;;15.30;99.90;;;;;;4991448;28;20034;-76
2022/10/18 12:07:39;;;;;;;21.38;7.95;;;15.40;99.90;;;;;;4967439;28;20049;-74
2022/10/18 12:10:13;;;;;;;20.10;6.43;;;15.40;99.90;;;;;;4982044;28;20372;-76
2022/10/18 12:12:49;;;;;;;16.48;6.95;;;15.40;99.90;;;;;;4972950;28;20018;-76
2022/10/18 12:15:20;;;;;;;22.88;6.53;;;15.40;99.90;;;;;;4994719;28;20022;-76
2022/10/18 12:17:50;;;;;;;;;;;15.40;99.90;;;;;;4962471;28;20018;-76
2022/10/18 12:20:38;;;;;;;19.70;6.72;;;15.30;99.90;;;;;;4996586;28;19949;-76
2022/10/18 12:23:22;;;;;;;19.77;6.13;;;15.30;99.90;;;;;;4962737;28;20042;-76
2022/10/18 12:25:59;;;;;;;14.45;4.13;;;15.30;99.90;;;;;;4990867;28;20536;-76
2022/10/18 12:28:48;;;;;;;12.20;3.45;;;15.30;99.90;;;;;;4992285;28;20118;-76
2022/10/18 12:31:25;;;;;;;10.05;2.47;;;15.20;99.90;;;;;;4989652;28;20038;-76
2022/10/18 12:33:55;;;;;;;8.63;2.47;;;15.20;99.90;;;;;;4995184;28;20034;-76
2022/10/18 12:36:21;;;;;;;8.63;2.53;;;15.20;99.90;;;;;;4990507;28;20035;-76
2022/10/18 12:38:54;;;;;;;10.05;2.63;;;15.20;99.90;;;;;;4973830;28;20033;-77
2022/10/18 12:41:33;;;;;;;15.52;3.67;;;15.10;99.90;;;;;;4989943;28;20399;-76
2022/10/18 12:44:24;;;;;;;13.23;3.28;;;15.10;99.90;;;;;;4983454;28;20030;-75
2022/10/18 12:46:56;;;;;;;11.63;3.05;;;15.10;99.90;;;;;;4935399;28;20398;-76
2022/10/18 12:49:21;;;;;;;;;;;15.20;99.90;;;;;;4997649;28;20069;-75
2022/10/18 12:51:57;;;;;;;26.67;3.35;;;15.20;99.90;;;;;;4994073;28;19961;-75
2022/10/18 12:54:32;;;;;;;9.50;2.83;;;15.30;99.90;;;;;;4991335;28;20037;-75